Time;durP1;ratioP1;P1;durP2;ratioP2;P2;SDS_P1;SDS_P2;PMS_P1;PMS_P2;Temp;Humidity;BMP_temperature;BMP_pressure;BME280_temperature;BME280_humidity;BME280_pressure;Samples;Min_cycle;Max_cycle;Signal;HPM_P1;HPM_P2
2022/10/03 00:01:24;;;;;;;8.25;3.92;;;14.50;99.90;;;13.82;100.00;102065.19;5072850;23;20051;-78
2022/10/03 00:03:50;;;;;;;7.15;3.03;;;14.60;99.90;;;13.82;100.00;102061.69;5072725;23;20013;-78
2022/10/03 00:06:03;;;;;;;11.45;3.35;;;14.50;99.90;;;13.77;100.00;102054.16;5074719;23;20084;-78
2022/10/03 00:08:41;;;;;;;8.48;2.80;;;14.50;99.90;;;13.85;100.00;102064.03;5073175;23;20069;-77
2022/10/03 00:11:24;;;;;;;6.93;3.22;;;14.60;99.90;;;13.83;100.00;102058.03;5074515;23;20018;-78
2022/10/03 00:13:52;;;;;;;8.93;3.42;;;14.50;99.90;;;13.82;100.00;102049.25;5072582;23;20013;-78
2022/10/03 00:16:12;;;;;;;7.22;3.20;;;14.60;99.90;;;13.84;100.00;102052.59;5072548;23;20027;-78
2022/10/03 00:19:03;;;;;;;10.55;4.00;;;14.60;99.90;;;13.84;100.00;102063.19;5074332;23;20013;-78
2022/10/03 00:21:21;;;;;;;9.95;3.90;;;14.50;99.90;;;13.87;100.00;102059.41;5074278;23;20013;-78
2022/10/03 00:23:37;;;;;;;11.23;4.68;;;14.60;99.90;;;13.87;100.00;102059.41;5074273;23;20030;-78
2022/10/03 00:26:27;;;;;;;12.07;5.03;;;14.60;99.90;;;13.86;100.00;102060.38;5074204;23;20005;-78
2022/10/03 00:29:35;;;;;;;13.20;5.75;;;14.60;99.90;;;13.82;100.00;102059.88;5074279;23;20338;-78
2022/10/03 00:31:57;;;;;;;11.02;6.43;;;14.60;99.90;;;13.87;100.00;102070.03;5077853;23;20354;-78
2022/10/03 00:34:29;;;;;;;9.80;4.90;;;14.60;99.90;;;13.90;100.00;102074.19;5073962;23;20422;-78
2022/10/03 00:36:59;;;;;;;11.77;4.97;;;14.60;99.90;;;13.91;100.00;102079.38;5072770;23;20454;-78
2022/10/03 00:39:35;;;;;;;11.70;5.47;;;14.60;99.90;;;13.92;100.00;102075.72;5074402;23;20009;-78
2022/10/03 00:42:11;;;;;;;9.23;4.97;;;14.60;99.90;;;13.95;100.00;102070.13;5071356;23;20006;-78
2022/10/03 00:44:56;;;;;;;15.07;4.68;;;14.70;99.90;;;13.95;100.00;102078.09;5074147;23;20029;-78
2022/10/03 00:47:06;;;;;;;12.68;4.03;;;14.70;99.90;;;13.95;100.00;102071.97;5074114;23;20006;-78
2022/10/03 00:49:27;;;;;;;8.23;3.88;;;14.70;99.90;;;13.92;100.00;102067.78;5072021;23;20044;-78
2022/10/03 00:51:48;;;;;;;8.50;3.25;;;14.70;99.90;;;13.96;100.00;102071.81;5072993;23;20029;-78
2022/10/03 00:54:08;;;;;;;12.93;3.20;;;14.70;99.90;;;13.94;100.00;102068.47;5072269;23;20013;-78
2022/10/03 00:56:14;;;;;;;10.15;2.85;;;14.70;99.90;;;13.97;100.00;102073.50;5074031;23;20064;-78
2022/10/03 00:58:27;;;;;;;5.57;2.20;;;14.70;99.90;;;13.98;100.00;102074.34;5074019;23;20013;-78
2022/10/03 01:00:31;;;;;;;5.75;2.80;;;14.70;99.90;;;13.93;100.00;102071.25;5074198;23;20006;-78
2022/10/03 01:02:38;;;;;;;6.00;2.72;;;14.70;99.90;;;13.94;100.00;102073.78;5072629;23;20013;-78
2022/10/03 01:05:22;;;;;;;6.57;3.47;;;14.60;99.90;;;13.93;100.00;102077.41;5073907;23;20006;-78
2022/10/03 01:07:45;;;;;;;9.75;3.53;;;14.70;99.90;;;13.89;100.00;102076.00;5072824;23;20006;-78
2022/10/03 01:10:27;;;;;;;9.95;3.42;;;14.60;99.90;;;13.92;100.00;102085.53;5073000;23;20009;-78
2022/10/03 01:12:58;;;;;;;9.18;3.22;;;14.70;99.90;;;13.90;100.00;102083.00;5052568;23;20006;-78
2022/10/03 01:15:18;;;;;;;7.65;2.53;;;14.60;99.90;;;13.89;100.00;102081.31;5074038;23;20137;-78
2022/10/03 01:17:42;;;;;;;9.52;2.88;;;14.70;99.90;;;13.86;100.00;102079.81;5073846;23;20002;-78
2022/10/03 01:20:25;;;;;;;8.25;2.95;;;14.60;99.90;;;13.86;100.00;102074.50;5071898;23;20422;-78
2022/10/03 01:23:25;;;;;;;8.23;2.60;;;14.60;99.90;;;13.85;100.00;102074.66;5073971;23;20009;-78
2022/10/03 01:25:49;;;;;;;5.68;2.17;;;14.60;99.90;;;13.85;100.00;102074.66;5073901;23;20061;-78
2022/10/03 01:31:04;;;;;;;5.50;1.90;;;14.60;99.90;;;13.85;100.00;102077.31;5063074;23;20073;-78
2022/10/03 01:33:10;;;;;;;6.10;1.90;;;14.60;99.90;;;13.79;100.00;102069.94;5049020;23;20006;-78
2022/10/03 01:35:44;;;;;;;4.07;1.48;;;14.60;99.90;;;13.83;100.00;102077.44;5075150;23;20025;-78
2022/10/03 01:38:03;;;;;;;5.45;1.50;;;14.60;99.90;;;13.83;100.00;102079.25;5100117;23;20009;-78
2022/10/03 01:40:47;;;;;;;10.52;1.50;;;14.60;99.90;;;13.84;100.00;102078.28;5074153;23;20030;-78
2022/10/03 01:43:21;;;;;;;5.50;1.55;;;14.60;99.90;;;13.83;100.00;102081.91;5100049;23;20001;-78
2022/10/03 01:45:31;;;;;;;2.38;1.10;;;14.60;99.90;;;13.82;100.00;102074.94;5099992;23;20009;-78
2022/10/03 01:47:50;;;;;;;2.85;1.00;;;14.60;99.90;;;13.80;100.00;102080.38;5074710;23;20006;-78
2022/10/03 01:50:18;;;;;;;6.55;1.52;;;14.50;99.90;;;13.81;100.00;102084.72;5075569;23;20030;-78
2022/10/03 01:52:32;;;;;;;3.92;1.10;;;14.50;99.90;;;13.81;100.00;102079.41;5099957;23;20005;-78
2022/10/03 01:55:25;;;;;;;2.45;0.77;;;14.60;99.90;;;13.80;100.00;102076.88;5073571;23;20013;-78
2022/10/03 01:57:41;;;;;;;7.50;2.03;;;14.60;99.90;;;13.80;100.00;102082.19;4977920;23;20099;-78
2022/10/03 02:00:09;;;;;;;3.92;0.90;;;14.50;99.90;;;13.80;100.00;102071.56;5059266;23;20009;-78
2022/10/03 02:02:27;;;;;;;3.28;0.80;;;14.50;99.90;;;13.80;100.00;102074.22;5051374;23;20009;-78
2022/10/03 02:04:58;;;;;;;4.00;1.20;;;14.60;99.90;;;13.76;100.00;102067.56;5099504;23;20009;-78
2022/10/03 02:07:24;;;;;;;4.90;1.00;;;14.60;99.90;;;13.73;100.00;102060.72;5052563;23;20467;-78
2022/10/03 02:09:52;;;;;;;3.50;0.93;;;14.50;99.90;;;13.80;100.00;102068.94;5076602;23;20010;-77
2022/10/03 02:12:14;;;;;;;3.05;0.77;;;14.50;99.90;;;13.75;100.00;102060.56;5099925;23;20006;-78
2022/10/03 02:14:54;;;;;;;3.75;0.70;;;14.50;99.90;;;13.79;100.00;102067.28;5052470;23;20571;-78
2022/10/03 02:17:01;;;;;;;6.22;1.95;;;14.50;99.90;;;13.77;100.00;102062.09;5074120;23;20009;-78
2022/10/03 02:19:50;;;;;;;2.40;0.90;;;14.50;99.90;;;13.76;100.00;102064.91;5074286;23;20010;-78
2022/10/03 02:21:57;;;;;;;6.07;0.98;;;14.50;99.90;;;13.78;100.00;102057.63;4977789;23;20394;-78
2022/10/03 02:24:19;;;;;;;3.22;0.90;;;14.60;99.90;;;13.79;100.00;102059.31;5041982;23;20006;-78
2022/10/03 02:26:57;;;;;;;2.63;0.70;;;14.50;99.90;;;13.79;100.00;102059.31;5099809;23;20425;-78
2022/10/03 02:29:50;;;;;;;3.58;1.02;;;14.50;99.90;;;13.78;100.00;102058.47;5049771;23;20089;-78
2022/10/03 02:32:45;;;;;;;2.42;0.70;;;14.50;99.90;;;13.78;100.00;102052.34;5099556;23;20001;-78
2022/10/03 02:35:32;;;;;;;4.32;0.80;;;14.50;99.90;;;13.78;100.00;102057.63;5098848;23;20076;-78
2022/10/03 02:38:04;;;;;;;4.53;1.17;;;14.50;99.90;;;13.78;100.00;102050.53;5050942;23;20025;-78
2022/10/03 02:40:30;;;;;;;2.28;0.80;;;14.50;99.90;;;13.79;100.00;102054.00;5050901;23;20037;-78
2022/10/03 02:42:46;;;;;;;3.45;1.00;;;14.50;99.90;;;13.75;100.00;102053.47;5049537;23;20011;-78
2022/10/03 02:45:30;;;;;;;5.13;1.25;;;14.50;99.90;;;13.73;100.00;102060.72;5050532;23;20081;-78
2022/10/03 02:48:09;;;;;;;3.22;0.68;;;14.50;99.90;;;13.70;100.00;102055.72;5050945;23;20037;-78
2022/10/03 02:50:38;;;;;;;2.30;1.00;;;14.50;99.90;;;13.71;100.00;102056.53;5030082;23;20062;-78
2022/10/03 02:53:40;;;;;;;1.67;0.50;;;14.40;99.90;;;13.73;100.00;102059.91;5025810;23;20450;-78
2022/10/03 02:56:03;;;;;;;3.88;0.70;;;14.40;99.90;;;13.70;100.00;102066.31;5019077;23;20371;-78
2022/10/03 02:58:37;;;;;;;4.72;0.80;;;14.40;99.90;;;13.70;100.00;102057.53;5050690;23;20037;-78
2022/10/03 03:01:03;;;;;;;5.30;0.80;;;14.50;99.90;;;13.69;100.00;102053.19;5051080;23;20006;-78
2022/10/03 03:03:51;;;;;;;2.38;1.67;;;14.40;99.90;;;13.71;100.00;102051.22;5050671;23;20070;-78
2022/10/03 03:06:07;;;;;;;2.38;0.60;;;14.50;99.90;;;13.68;100.00;102036.44;5046240;23;20108;-78
2022/10/03 03:08:48;;;;;;;2.55;0.75;;;14.40;99.90;;;13.69;100.00;102040.78;5050767;23;20066;-78
2022/10/03 03:11:20;;;;;;;1.42;0.70;;;14.40;99.90;;;13.71;100.00;102038.81;5049243;23;20011;-78
2022/10/03 03:13:54;;;;;;;7.05;1.33;;;14.50;99.90;;;13.72;100.00;102040.50;5050601;23;20423;-78
2022/10/03 03:16:13;;;;;;;1.83;0.95;;;14.50;99.90;;;13.73;100.00;102031.56;5050500;23;20007;-78
2022/10/03 03:18:49;;;;;;;3.15;1.17;;;14.50;99.90;;;13.72;100.00;102035.19;5050148;23;20011;-78
2022/10/03 03:20:56;;;;;;;4.35;1.13;;;14.50;99.90;;;13.72;100.00;102032.53;5050197;23;20006;-78
2022/10/03 03:23:06;;;;;;;4.40;1.48;;;14.50;99.90;;;13.73;100.00;102046.63;5050506;23;20034;-78
2022/10/03 03:25:45;;;;;;;3.60;1.00;;;14.50;99.90;;;13.72;100.00;102050.25;5050396;23;20006;-78
2022/10/03 03:28:31;;;;;;;5.88;1.67;;;14.40;99.90;;;13.71;100.00;102040.63;4977287;23;20052;-78
2022/10/03 03:30:54;;;;;;;2.47;0.88;;;14.40;99.90;;;13.71;100.00;102040.63;4977600;23;20011;-78
2022/10/03 03:33:58;;;;;;;4.78;0.68;;;14.40;99.90;;;13.69;100.00;102045.25;5012981;23;20015;-78
2022/10/03 03:36:28;;;;;;;12.30;1.17;;;14.50;99.90;;;13.69;100.00;102039.94;5057100;23;20066;-78
2022/10/03 03:38:48;;;;;;;3.33;1.15;;;14.50;99.90;;;13.67;100.00;102033.94;5074644;23;20006;-78
2022/10/03 03:41:22;;;;;;;4.05;0.82;;;14.40;99.90;;;13.71;100.00;102036.16;5073161;23;20005;-78
2022/10/03 03:44:12;;;;;;;3.15;0.65;;;14.40;99.90;;;13.69;100.00;102027.53;5074640;23;20002;-78
2022/10/03 03:47:11;;;;;;;2.25;0.60;;;14.40;99.90;;;13.68;100.00;102031.13;5073667;23;20173;-78
2022/10/03 03:49:40;;;;;;;1.20;0.75;;;14.40;99.90;;;13.70;100.00;102034.50;5069562;23;20036;-78
2022/10/03 03:52:13;;;;;;;3.35;0.70;;;14.40;99.90;;;13.68;100.00;102025.84;5073357;23;20002;-78
2022/10/03 03:54:54;;;;;;;5.65;1.20;;;14.40;99.90;;;13.70;100.00;102028.38;5073357;23;20033;-78
2022/10/03 03:57:01;;;;;;;2.65;0.82;;;14.40;99.90;;;13.67;100.00;102018.88;5074045;23;20010;-78
2022/10/03 03:59:09;;;;;;;7.43;0.75;;;14.40;99.90;;;13.70;100.00;102023.91;5074455;23;20012;-78
2022/10/03 04:01:41;;;;;;;3.92;0.77;;;14.40;99.90;;;13.70;100.00;102025.72;5074513;23;20033;-78
2022/10/03 04:04:11;;;;;;;2.78;0.52;;;14.40;99.90;;;13.67;100.00;102010.09;5072526;23;20010;-78
2022/10/03 04:06:39;;;;;;;1.83;0.80;;;14.40;99.90;;;13.69;100.00;102022.22;5073459;23;20014;-78
2022/10/03 04:09:17;;;;;;;4.10;1.52;;;14.40;99.90;;;13.68;100.00;102025.84;5074420;23;20033;-78
2022/10/03 04:11:32;;;;;;;8.65;1.10;;;14.40;99.90;;;13.68;100.00;102019.69;5073164;23;20033;-78
2022/10/03 04:14:05;;;;;;;4.28;1.48;;;14.40;99.90;;;13.70;100.00;102015.09;5097360;23;20005;-78
2022/10/03 04:19:32;;;;;;;4.35;1.35;;;14.50;99.90;;;13.72;100.00;102013.13;5072740;23;20025;-78
2022/10/03 04:22:03;;;;;;;4.18;1.10;;;14.50;99.90;;;13.75;100.00;102018.16;5074474;23;20080;-78
2022/10/03 04:24:47;;;;;;;2.60;0.63;;;14.50;99.90;;;13.73;100.00;102006.84;5074252;23;20013;-78
2022/10/03 04:27:36;;;;;;;4.75;0.73;;;14.50;99.90;;;13.74;100.00;102004.03;5074328;23;20514;-78
2022/10/03 04:30:02;;;;;;;2.97;1.17;;;14.50;99.90;;;13.73;100.00;102007.69;5074454;23;20443;-78
2022/10/03 04:32:19;;;;;;;3.35;1.23;;;14.50;99.90;;;13.75;100.00;102005.72;5072962;23;20465;-78
2022/10/03 04:34:53;;;;;;;4.10;0.90;;;14.50;99.90;;;13.73;100.00;102001.56;5072186;23;20052;-78
2022/10/03 04:37:14;;;;;;;3.30;0.68;;;14.50;99.90;;;13.75;100.00;102010.19;5072718;23;20133;-78
2022/10/03 04:39:41;;;;;;;4.38;1.10;;;14.50;99.90;;;13.75;100.00;102004.88;5074378;23;20002;-78
2022/10/03 04:42:46;;;;;;;1.70;0.52;;;14.50;99.90;;;13.70;100.00;102001.84;5072978;23;20029;-78
2022/10/03 04:45:23;;;;;;;5.18;0.85;;;14.50;99.90;;;13.73;100.00;102014.81;5047996;23;20020;-78
2022/10/03 04:47:58;;;;;;;4.68;0.90;;;14.50;99.90;;;13.70;100.00;102002.69;5074314;23;20009;-78
2022/10/03 04:50:33;;;;;;;4.27;1.30;;;14.50;99.90;;;13.67;100.00;102002.13;5072399;23;20018;-78
2022/10/03 04:53:10;;;;;;;4.45;0.70;;;14.40;99.90;;;13.74;100.00;102011.16;5074083;23;20057;-78
2022/10/03 04:55:38;;;;;;;4.70;0.90;;;14.50;99.90;;;13.72;100.00;102008.66;5072414;23;20010;-78
2022/10/03 04:58:06;;;;;;;5.45;0.95;;;14.40;99.90;;;13.69;100.00;102002.81;5074123;23;20342;-78
2022/10/03 05:00:27;;;;;;;3.75;0.68;;;14.40;99.90;;;13.73;100.00;102009.50;5072831;23;20331;-78
2022/10/03 05:02:57;;;;;;;6.13;0.80;;;14.50;99.90;;;13.75;100.00;102015.50;5073973;23;20002;-78
2022/10/03 05:05:38;;;;;;;6.38;0.90;;;14.50;99.90;;;13.73;100.00;102013.00;5072275;23;20010;-78
2022/10/03 05:08:24;;;;;;;5.70;0.63;;;14.40;99.90;;;13.72;100.00;102008.66;5073738;23;20006;-78
2022/10/03 05:11:04;;;;;;;5.07;1.40;;;14.50;99.90;;;13.71;100.00;102019.41;5073996;23;20013;-78
2022/10/03 05:13:16;;;;;;;3.17;0.63;;;14.50;99.90;;;13.72;100.00;102003.38;5074010;23;20009;-78
2022/10/03 05:15:27;;;;;;;5.85;1.33;;;14.50;99.90;;;13.67;100.00;101995.03;5073871;23;20014;-78
2022/10/03 05:18:09;;;;;;;3.25;0.63;;;14.50;99.90;;;13.75;100.00;101996.94;5072488;23;20053;-78
2022/10/03 05:20:26;;;;;;;5.43;0.77;;;14.50;99.90;;;13.74;100.00;101997.91;5072278;23;20006;-78
2022/10/03 05:23:01;;;;;;;3.53;0.70;;;14.50;99.90;;;13.74;100.00;102001.38;5072474;23;20021;-78
2022/10/03 05:25:53;;;;;;;2.70;0.50;;;14.50;99.90;;;13.75;100.00;102007.53;5073920;23;20002;-78
2022/10/03 05:28:35;;;;;;;2.70;0.90;;;14.50;99.90;;;13.74;100.00;102003.19;5029785;23;20011;-78
2022/10/03 05:31:14;;;;;;;4.45;1.13;;;14.50;99.90;;;13.73;100.00;102006.84;5072719;23;20030;-78
2022/10/03 05:33:53;;;;;;;2.67;0.93;;;14.50;99.90;;;13.71;100.00;102006.16;5073930;23;20084;-78
2022/10/03 05:36:06;;;;;;;1.35;0.60;;;14.50;99.90;;;13.72;100.00;101999.88;5071961;23;20013;-78
2022/10/03 05:38:18;;;;;;;1.35;0.38;;;14.50;99.90;;;13.73;100.00;102002.41;5072362;23;20084;-78
2022/10/03 05:40:27;;;;;;;3.97;0.77;;;14.50;99.90;;;13.74;100.00;102008.50;5073820;23;20037;-78
2022/10/03 05:42:52;;;;;;;1.73;0.95;;;14.50;99.90;;;13.74;100.00;102005.84;5072574;23;20002;-78
2022/10/03 05:45:22;;;;;;;3.85;0.88;;;14.50;99.90;;;13.73;100.00;102005.03;5073816;23;20016;-78
2022/10/03 05:47:47;;;;;;;8.70;1.02;;;14.50;99.90;;;13.71;100.00;101996.38;5073784;23;20085;-78
2022/10/03 05:50:17;;;;;;;2.53;0.60;;;14.50;99.90;;;13.73;100.00;102006.84;5050291;23;20010;-78
2022/10/03 05:52:33;;;;;;;2.60;0.47;;;14.50;99.90;;;13.72;100.00;102008.66;5058182;23;20038;-78
2022/10/03 05:54:58;;;;;;;2.83;0.50;;;14.50;99.90;;;13.72;100.00;102011.31;5073706;23;20018;-78
2022/10/03 05:57:07;;;;;;;3.90;0.40;;;14.50;99.90;;;13.72;100.00;102005.19;5073904;23;20025;-78
2022/10/03 05:59:39;;;;;;;2.28;0.40;;;14.40;99.90;;;13.71;100.00;101998.19;5071926;23;20065;-78
2022/10/03 06:02:15;;;;;;;3.05;0.60;;;14.50;99.90;;;13.73;100.00;102001.56;5093419;23;20319;-78
2022/10/03 06:04:53;;;;;;;1.10;0.30;;;14.50;99.90;;;13.71;100.00;102004.34;5051027;23;20067;-78
2022/10/03 06:07:20;;;;;;;5.03;0.75;;;14.50;99.90;;;13.71;100.00;102004.34;5073837;23;20006;-78
2022/10/03 06:10:37;;;;;;;2.40;0.80;;;14.50;99.90;;;13.73;100.00;102010.34;5073879;23;20081;-78
2022/10/03 06:12:41;;;;;;;3.70;0.40;;;14.50;99.90;;;13.73;100.00;102010.34;5023626;23;20014;-79
2022/10/03 06:15:09;;;;;;;1.95;0.73;;;14.50;99.90;;;13.76;100.00;102009.22;5023432;23;20078;-78
2022/10/03 06:17:27;;;;;;;3.92;0.55;;;14.50;99.90;;;13.77;100.00;102010.88;5036466;23;20048;-79
2022/10/03 06:19:48;;;;;;;2.30;0.40;;;14.50;99.90;;;13.78;100.00;101999.28;5071867;23;20009;-78
2022/10/03 06:22:11;;;;;;;4.10;0.70;;;14.50;99.90;;;13.77;100.00;102009.06;5049124;23;20459;-79
2022/10/03 06:24:26;;;;;;;4.63;0.45;;;14.50;99.90;;;13.79;100.00;102000.97;5075473;23;20010;-79
2022/10/03 06:26:57;;;;;;;1.25;0.43;;;14.50;99.90;;;13.82;100.00;102011.28;5075175;23;20002;-79
2022/10/03 06:29:22;;;;;;;2.42;0.93;;;14.50;99.90;;;13.81;100.00;102009.59;5050976;23;20026;-79
2022/10/03 06:32:12;;;;;;;2.25;0.40;;;14.60;99.90;;;13.81;100.00;102013.09;5075159;23;20002;-79
2022/10/03 06:34:43;;;;;;;1.23;0.28;;;14.50;99.90;;;13.83;100.00;102019.09;5075209;23;20077;-79
2022/10/03 06:37:36;;;;;;;3.08;0.80;;;14.60;99.90;;;13.85;100.00;102014.50;5092797;23;20073;-79
2022/10/03 06:40:13;;;;;;;2.67;0.60;;;14.60;99.90;;;13.89;100.00;102019.50;5077405;23;20009;-79
2022/10/03 06:42:54;;;;;;;1.30;0.43;;;14.60;99.90;;;13.91;100.00;102006.91;5073522;23;20493;-78
2022/10/03 06:45:19;;;;;;;1.75;0.52;;;14.60;99.90;;;13.95;100.00;102011.78;5099415;23;20068;-78
2022/10/03 06:47:28;;;;;;;2.50;0.57;;;14.70;99.90;;;13.91;100.00;102002.44;5099842;23;20006;-78
2022/10/03 06:49:54;;;;;;;1.55;0.40;;;14.70;99.90;;;14.00;100.00;102006.88;5074331;23;20006;-78
2022/10/03 06:52:16;;;;;;;0.70;0.32;;;14.70;99.90;;;14.03;100.00;102014.53;5051414;23;20010;-78
2022/10/03 06:54:49;;;;;;;2.25;0.60;;;14.70;99.90;;;14.08;100.00;102006.13;5050596;23;20018;-78
2022/10/03 06:57:08;;;;;;;3.22;0.60;;;14.80;99.90;;;14.13;100.00;102009.16;5099389;23;20002;-78
2022/10/03 06:59:44;;;;;;;1.90;0.90;;;14.80;99.90;;;14.16;100.00;102004.41;5099540;23;20032;-79
2022/10/03 07:02:39;;;;;;;2.08;0.50;;;14.90;99.90;;;14.22;100.00;102011.75;5032531;23;20077;-79
2022/10/03 07:04:54;;;;;;;4.05;0.70;;;14.90;99.90;;;14.24;100.00;102009.81;5075374;23;20110;-78
2022/10/03 07:07:21;;;;;;;4.88;0.73;;;15.00;99.90;;;14.31;100.00;102020.66;5099297;23;20005;-79
2022/10/03 07:10:04;;;;;;;1.20;0.50;;;15.00;99.90;;;14.36;100.00;102021.09;5082777;23;20080;-78
2022/10/03 07:12:44;;;;;;;1.27;0.30;;;15.10;99.90;;;14.40;100.00;102025.94;5073105;23;20383;-78
2022/10/03 07:15:30;;;;;;;2.45;0.65;;;15.10;99.90;;;14.46;100.00;102031.63;5099331;23;20009;-79
2022/10/03 07:18:05;;;;;;;2.88;1.33;;;15.20;99.90;;;14.48;100.00;102029.69;5073063;23;20016;-79
2022/10/03 07:20:40;;;;;;;4.47;0.77;;;15.20;99.90;;;14.52;100.00;102029.22;5087968;23;20457;-78
2022/10/03 07:23:38;;;;;;;2.65;0.60;;;15.20;99.90;;;14.56;100.00;102037.72;5099634;23;20059;-79
2022/10/03 07:26:07;;;;;;;2.90;0.52;;;15.30;99.90;;;14.60;100.00;102039.94;5073613;23;20411;-79
2022/10/03 07:28:55;;;;;;;3.15;0.50;;;15.30;99.90;;;14.62;100.00;102034.47;5099131;23;20024;-79
2022/10/03 07:31:31;;;;;;;1.23;0.45;;;15.30;99.90;;;14.63;100.00;102046.75;5099059;23;20005;-79
2022/10/03 07:34:18;;;;;;;2.97;0.60;;;15.40;99.90;;;14.65;100.00;102042.13;5098689;23;20036;-79
2022/10/03 07:39:44;;;;;;;2.80;0.60;;;15.40;99.90;;;14.66;100.00;102055.28;5098866;23;20089;-79
2022/10/03 07:42:37;;;;;;;1.17;0.30;;;15.40;99.90;;;14.72;100.00;102061.81;5099134;23;20315;-79
2022/10/03 07:45:08;;;;;;;2.53;0.90;;;15.40;99.90;;;14.73;100.00;102058.97;5099007;23;20005;-78
2022/10/03 07:47:40;;;;;;;2.03;0.32;;;15.50;99.90;;;14.76;100.00;102068.47;5099101;23;20009;-79
2022/10/03 07:50:21;;;;;;;1.75;0.38;;;15.50;99.90;;;14.81;100.00;102067.00;5098618;23;20005;-79
2022/10/03 07:53:22;;;;;;;1.70;0.40;;;15.50;99.90;;;14.86;100.00;102074.56;5076882;23;20010;-79
2022/10/03 07:55:56;;;;;;;2.15;0.47;;;15.60;99.90;;;14.94;100.00;102085.25;5077142;23;20010;-79
2022/10/03 07:58:41;;;;;;;2.22;0.57;;;15.60;99.90;;;14.96;100.00;102083.28;5076128;23;20050;-79
2022/10/03 08:01:06;;;;;;;1.90;0.97;;;15.70;99.90;;;15.02;100.00;102090.66;5075680;23;20006;-79
2022/10/03 08:03:32;;;;;;;;;;;15.70;99.90;;;15.05;100.00;102093.00;5073055;23;20341;-79
2022/10/03 08:06:07;;;;;;;4.25;0.77;;;15.80;99.90;;;15.13;100.00;102090.41;5097288;23;20356;-79
2022/10/03 08:08:49;;;;;;;2.08;0.40;;;15.80;99.90;;;15.25;100.00;102094.50;5076942;23;20009;-78
2022/10/03 08:11:29;;;;;;;4.20;0.90;;;15.90;99.90;;;15.28;100.00;102102.19;5098784;23;20032;-79
2022/10/03 08:14:23;;;;;;;3.65;0.82;;;16.00;99.90;;;15.32;100.00;102100.88;5072792;23;20014;-79
2022/10/03 08:17:20;;;;;;;3.00;0.50;;;16.00;99.90;;;15.33;100.00;102099.06;5098449;23;20013;-79
2022/10/03 08:19:33;;;;;;;1.73;0.30;;;16.10;99.90;;;15.39;100.00;102099.28;5074851;23;20046;-78
2022/10/03 08:22:13;;;;;;;1.50;0.35;;;16.10;99.90;;;15.53;100.00;102107.72;5048932;23;20065;-79
2022/10/03 08:24:32;;;;;;;2.75;0.30;;;16.20;99.90;;;15.61;100.00;102108.63;5098674;23;20009;-79
2022/10/03 08:27:25;;;;;;;2.70;0.55;;;16.30;99.90;;;15.68;100.00;102106.19;5073130;23;20010;-79
2022/10/03 08:30:03;;;;;;;1.00;0.30;;;16.40;99.90;;;15.80;100.00;102116.38;5098894;23;20016;-79
2022/10/03 08:32:18;;;;;;;3.70;0.70;;;16.50;99.90;;;15.89;100.00;102114.59;5098637;23;20006;-79
2022/10/03 08:35:02;;;;;;;2.50;0.52;;;16.60;99.90;;;15.89;100.00;102119.94;5098325;23;20006;-79
2022/10/03 08:37:34;;;;;;;2.47;0.98;;;16.60;99.90;;;15.93;100.00;102122.13;5072235;23;20053;-79
2022/10/03 08:39:56;;;;;;;2.67;0.40;;;16.60;99.90;;;15.99;100.00;102115.34;5097784;23;20009;-79
2022/10/03 08:42:35;;;;;;;2.60;0.63;;;16.60;99.90;;;16.03;100.00;102122.88;5072568;23;20073;-79
2022/10/03 08:44:46;;;;;;;4.97;0.65;;;16.70;99.90;;;16.10;100.00;102117.72;5072474;23;20014;-79
2022/10/03 08:47:36;;;;;;;2.42;0.57;;;16.80;99.90;;;16.17;100.00;102117.94;5098488;23;20337;-79
2022/10/03 08:50:14;;;;;;;2.20;0.80;;;16.80;99.90;;;16.21;100.00;102117.47;5038572;23;20102;-79
2022/10/03 08:52:31;;;;;;;4.60;0.50;;;17.00;99.90;;;16.31;100.00;102114.66;5098657;23;20036;-79
2022/10/03 08:54:50;;;;;;;3.33;0.65;;;17.10;99.90;;;16.49;100.00;102123.38;5074627;23;20006;-79
2022/10/03 08:57:38;;;;;;;2.78;0.85;;;17.20;99.90;;;16.59;100.00;102116.97;5098857;23;20041;-79
2022/10/03 09:00:00;;;;;;;1.65;0.45;;;17.30;99.90;;;16.78;100.00;102123.03;5077335;23;20002;-79
2022/10/03 09:02:46;;;;;;;2.95;0.60;;;17.40;99.90;;;16.88;100.00;102129.88;5098513;23;20008;-79
2022/10/03 09:05:22;;;;;;;1.52;0.60;;;17.60;99.90;;;17.02;100.00;102121.22;5098020;23;20013;-79
2022/10/03 09:07:31;;;;;;;2.22;0.65;;;17.70;99.90;;;17.16;100.00;102133.09;5098410;23;20444;-79
2022/10/03 09:09:47;;;;;;;2.67;0.50;;;17.80;99.90;;;17.23;100.00;102134.13;5098432;23;20005;-79
2022/10/03 09:12:49;;;;;;;1.60;0.40;;;17.90;99.90;;;17.26;100.00;102125.78;5098785;23;20080;-79
2022/10/03 09:15:23;;;;;;;3.25;0.70;;;18.00;99.90;;;17.27;100.00;102129.25;5072070;23;20410;-79
2022/10/03 09:18:14;;;;;;;3.25;0.57;;;18.10;99.90;;;17.36;100.00;102125.59;5085325;23;20013;-78
2022/10/03 09:20:50;;;;;;;2.47;0.47;;;18.10;99.90;;;17.42;100.00;102127.59;5052501;23;20434;-79
2022/10/03 09:23:26;;;;;;;2.85;0.75;;;18.20;99.90;;;17.65;100.00;102117.97;5000118;23;20086;-79
2022/10/03 09:25:48;;;;;;;3.47;0.47;;;18.40;99.90;;;17.84;100.00;102116.75;5058449;23;20028;-79
2022/10/03 09:28:17;;;;;;;1.65;0.60;;;18.60;99.90;;;17.92;100.00;102116.75;5072192;23;20012;-78
2022/10/03 09:30:42;;;;;;;1.90;0.60;;;18.70;99.90;;;18.00;99.78;102108.72;5098293;23;20053;-79
2022/10/03 09:33:33;;;;;;;3.72;0.75;;;18.70;99.90;;;17.97;98.84;102114.41;5098371;23;20056;-79
2022/10/03 09:35:40;;;;;;;1.42;0.63;;;18.80;99.90;;;17.86;97.87;102104.88;5097897;23;20105;-79
2022/10/03 09:38:18;;;;;;;1.15;0.25;;;18.70;99.90;;;17.86;98.54;102112.91;5098294;23;20041;-79
2022/10/03 09:41:03;;;;;;;2.55;0.50;;;18.60;99.90;;;17.78;97.80;102110.25;5072349;23;20430;-79
2022/10/03 09:43:26;;;;;;;2.22;0.35;;;18.50;99.90;;;17.67;99.26;102110.63;5047575;23;20072;-79
2022/10/03 09:45:44;;;;;;;2.47;0.50;;;18.40;99.90;;;17.54;99.11;102116.47;5047778;23;20002;-79
2022/10/03 09:48:13;;;;;;;2.00;0.43;;;18.30;99.90;;;17.71;99.46;102111.97;5063163;23;20064;-79
2022/10/03 09:50:51;;;;;;;2.53;0.35;;;18.40;99.90;;;17.99;97.90;102101.69;5072219;23;20444;-79
2022/10/03 09:53:32;;;;;;;4.03;0.80;;;18.50;99.90;;;18.23;95.73;102099.78;5098238;23;20032;-79
2022/10/03 09:56:13;;;;;;;4.38;0.70;;;18.80;99.90;;;18.27;93.52;102108.28;5099031;23;20057;-79
2022/10/03 09:58:36;;;;;;;3.10;0.68;;;18.90;99.90;;;18.30;92.38;102107.94;5099858;23;20020;-79
2022/10/03 10:00:51;;;;;;;1.52;0.50;;;19.00;99.90;;;18.30;93.37;102107.94;5073842;23;20010;-79
2022/10/03 10:02:55;;;;;;;3.17;0.70;;;19.00;99.90;;;18.31;93.40;102101.56;5099794;23;20060;-79
2022/10/03 10:05:13;;;;;;;2.08;0.40;;;19.00;99.90;;;18.45;93.13;102108.88;5073349;23;20025;-79
2022/10/03 10:08:04;;;;;;;1.27;0.43;;;19.20;99.90;;;18.74;91.20;102095.72;5099681;23;20016;-79
2022/10/03 10:10:48;;;;;;;2.92;0.70;;;19.40;99.90;;;19.02;91.04;102095.22;5100205;23;20014;-79
2022/10/03 10:13:41;;;;;;;2.78;1.30;;;19.70;99.90;;;19.25;89.18;102104.88;5054260;23;20044;-79
2022/10/03 10:16:16;;;;;;;1.70;0.40;;;19.90;99.90;;;19.49;88.16;102101.19;5099499;23;20006;-79
2022/10/03 10:19:00;;;;;;;2.92;0.43;;;20.20;99.90;;;19.51;87.08;102075.06;5099876;23;20033;-79
2022/10/03 10:21:57;;;;;;;1.83;0.47;;;20.40;99.90;;;19.80;86.26;102099.19;5077607;23;20009;-79
2022/10/03 10:24:37;;;;;;;2.08;0.60;;;20.50;99.90;;;19.72;84.67;102106.50;4977722;23;20014;-79
2022/10/03 10:26:52;;;;;;;2.80;0.60;;;20.60;99.90;;;19.77;85.28;102094.22;5085750;23;20080;-79
2022/10/03 10:29:11;;;;;;;;;;;20.70;99.90;;;19.44;83.52;102098.25;5073842;23;20010;-79
2022/10/03 10:31:39;;;;;;;2.33;0.90;;;20.60;99.90;;;19.74;85.76;102093.78;5098023;23;19947;-79
2022/10/03 10:34:09;;;;;;;1.88;0.50;;;20.60;99.90;;;19.75;83.02;102093.56;5099257;23;20457;-79